sensor_id;sensor_type;location;lat;lon;timestamp;temperature;humidity
69715;HTU21D;56981;53.532;49.398;2023-07-13T00:00:36;16.03;75.25
69715;HTU21D;56981;53.532;49.398;2023-07-13T00:03:04;16.06;75.63
69715;HTU21D;56981;53.532;49.398;2023-07-13T00:05:30;16.14;75.77
69715;HTU21D;56981;53.532;49.398;2023-07-13T00:07:57;16.19;75.53
69715;HTU21D;56981;53.532;49.398;2023-07-13T00:10:23;16.27;74.66
69715;HTU21D;56981;53.532;49.398;2023-07-13T00:12:49;16.31;75.26
69715;HTU21D;56981;53.532;49.398;2023-07-13T00:15:19;16.36;75.43
69715;HTU21D;56981;53.532;49.398;2023-07-13T00:17:55;16.37;76.43
69715;HTU21D;56981;53.532;49.398;2023-07-13T00:20:23;16.41;75.94
69715;HTU21D;56981;53.532;49.398;2023-07-13T00:22:52;16.40;75.73
69715;HTU21D;56981;53.532;49.398;2023-07-13T00:25:20;16.34;76.60
69715;HTU21D;56981;53.532;49.398;2023-07-13T00:27:48;16.15;77.98
69715;HTU21D;56981;53.532;49.398;2023-07-13T00:30:14;16.03;77.43
69715;HTU21D;56981;53.532;49.398;2023-07-13T00:32:40;15.98;77.03
69715;HTU21D;56981;53.532;49.398;2023-07-13T00:35:07;15.93;77.02
69715;HTU21D;56981;53.532;49.398;2023-07-13T00:37:33;15.85;76.53
69715;HTU21D;56981;53.532;49.398;2023-07-13T00:40:02;15.70;77.30
69715;HTU21D;56981;53.532;49.398;2023-07-13T00:42:29;15.66;77.96
69715;HTU21D;56981;53.532;49.398;2023-07-13T00:47:31;15.58;77.99
69715;HTU21D;56981;53.532;49.398;2023-07-13T00:49:58;15.57;79.27
69715;HTU21D;56981;53.532;49.398;2023-07-13T00:52:24;15.57;78.44
69715;HTU21D;56981;53.532;49.398;2023-07-13T00:54:50;15.58;80.18
69715;HTU21D;56981;53.532;49.398;2023-07-13T00:57:19;15.78;78.87
69715;HTU21D;56981;53.532;49.398;2023-07-13T00:59:49;15.86;77.45
69715;HTU21D;56981;53.532;49.398;2023-07-13T01:02:16;15.85;78.20
69715;HTU21D;56981;53.532;49.398;2023-07-13T01:04:43;15.89;77.75
69715;HTU21D;56981;53.532;49.398;2023-07-13T01:07:10;15.85;77.03
69715;HTU21D;56981;53.532;49.398;2023-07-13T01:09:37;15.78;77.37
69715;HTU21D;56981;53.532;49.398;2023-07-13T01:12:04;15.85;76.90
69715;HTU21D;56981;53.532;49.398;2023-07-13T01:14:30;15.90;76.26
69715;HTU21D;56981;53.532;49.398;2023-07-13T01:16:57;15.86;76.05
69715;HTU21D;56981;53.532;49.398;2023-07-13T01:19:29;16.24;75.00
69715;HTU21D;56981;53.532;49.398;2023-07-13T01:22:13;17.58;70.87
69715;HTU21D;56981;53.532;49.398;2023-07-13T01:24:41;18.38;67.17
69715;HTU21D;56981;53.532;49.398;2023-07-13T01:27:10;18.13;69.43
69715;HTU21D;56981;53.532;49.398;2023-07-13T01:29:38;17.90;70.06
69715;HTU21D;56981;53.532;49.398;2023-07-13T01:32:09;18.39;68.40
69715;HTU21D;56981;53.532;49.398;2023-07-13T01:34:36;18.37;67.93
69715;HTU21D;56981;53.532;49.398;2023-07-13T01:37:06;18.15;68.97
69715;HTU21D;56981;53.532;49.398;2023-07-13T01:39:32;18.03;70.93
69715;HTU21D;56981;53.532;49.398;2023-07-13T01:41:58;17.92;70.82
69715;HTU21D;56981;53.532;49.398;2023-07-13T01:44:29;17.85;72.22
69715;HTU21D;56981;53.532;49.398;2023-07-13T01:46:55;17.78;71.41
69715;HTU21D;56981;53.532;49.398;2023-07-13T01:49:21;17.69;71.37
69715;HTU21D;56981;53.532;49.398;2023-07-13T01:51:47;17.68;71.90
69715;HTU21D;56981;53.532;49.398;2023-07-13T01:54:13;17.67;72.15
69715;HTU21D;56981;53.532;49.398;2023-07-13T01:56:39;17.66;71.91
69715;HTU21D;56981;53.532;49.398;2023-07-13T01:59:08;17.62;71.19
69715;HTU21D;56981;53.532;49.398;2023-07-13T02:01:34;17.69;72.02
69715;HTU21D;56981;53.532;49.398;2023-07-13T02:04:00;17.65;72.03
69715;HTU21D;56981;53.532;49.398;2023-07-13T02:06:26;17.66;73.02
69715;HTU21D;56981;53.532;49.398;2023-07-13T02:08:52;17.64;71.26
69715;HTU21D;56981;53.532;49.398;2023-07-13T02:11:18;17.62;70.52
69715;HTU21D;56981;53.532;49.398;2023-07-13T02:13:44;17.61;70.19
69715;HTU21D;56981;53.532;49.398;2023-07-13T02:16:10;17.65;69.52
69715;HTU21D;56981;53.532;49.398;2023-07-13T02:18:36;17.69;71.73
69715;HTU21D;56981;53.532;49.398;2023-07-13T02:21:03;17.72;71.03
69715;HTU21D;56981;53.532;49.398;2023-07-13T02:23:29;17.76;69.36
69715;HTU21D;56981;53.532;49.398;2023-07-13T02:26:01;17.70;67.94
69715;HTU21D;56981;53.532;49.398;2023-07-13T02:28:28;17.74;67.81
69715;HTU21D;56981;53.532;49.398;2023-07-13T02:30:54;17.75;69.38
69715;HTU21D;56981;53.532;49.398;2023-07-13T02:33:20;17.73;69.89
69715;HTU21D;56981;53.532;49.398;2023-07-13T02:35:46;17.72;67.33
69715;HTU21D;56981;53.532;49.398;2023-07-13T02:38:12;17.73;68.65
69715;HTU21D;56981;53.532;49.398;2023-07-13T02:40:38;17.74;67.03
69715;HTU21D;56981;53.532;49.398;2023-07-13T02:43:04;17.77;68.79
69715;HTU21D;56981;53.532;49.398;2023-07-13T02:45:30;17.80;68.62
69715;HTU21D;56981;53.532;49.398;2023-07-13T02:47:56;17.76;68.64
69715;HTU21D;56981;53.532;49.398;2023-07-13T02:50:22;17.75;68.01
69715;HTU21D;56981;53.532;49.398;2023-07-13T02:52:48;17.72;68.58
69715;HTU21D;56981;53.532;49.398;2023-07-13T02:55:14;17.78;68.78
69715;HTU21D;56981;53.532;49.398;2023-07-13T02:57:40;17.81;68.67
69715;HTU21D;56981;53.532;49.398;2023-07-13T03:00:07;17.89;71.31
69715;HTU21D;56981;53.532;49.398;2023-07-13T03:02:34;17.96;69.26
69715;HTU21D;56981;53.532;49.398;2023-07-13T03:05:00;17.99;70.95
69715;HTU21D;56981;53.532;49.398;2023-07-13T03:07:26;18.02;71.83
69715;HTU21D;56981;53.532;49.398;2023-07-13T03:09:56;18.02;70.65
69715;HTU21D;56981;53.532;49.398;2023-07-13T03:12:23;18.05;71.19
69715;HTU21D;56981;53.532;49.398;2023-07-13T03:14:49;17.95;71.65
69715;HTU21D;56981;53.532;49.398;2023-07-13T03:17:16;17.94;71.41
69715;HTU21D;56981;53.532;49.398;2023-07-13T03:19:42;17.91;73.09
69715;HTU21D;56981;53.532;49.398;2023-07-13T03:22:09;17.91;72.74
69715;HTU21D;56981;53.532;49.398;2023-07-13T03:24:35;17.96;73.58
69715;HTU21D;56981;53.532;49.398;2023-07-13T03:27:04;17.98;73.85
69715;HTU21D;56981;53.532;49.398;2023-07-13T03:29:30;18.03;74.89
69715;HTU21D;56981;53.532;49.398;2023-07-13T03:31:56;18.13;73.65
69715;HTU21D;56981;53.532;49.398;2023-07-13T03:34:22;18.15;74.10
69715;HTU21D;56981;53.532;49.398;2023-07-13T03:36:48;17.93;72.67
69715;HTU21D;56981;53.532;49.398;2023-07-13T03:39:15;17.80;73.54
69715;HTU21D;56981;53.532;49.398;2023-07-13T03:41:41;17.80;73.27
69715;HTU21D;56981;53.532;49.398;2023-07-13T03:44:07;17.90;75.02
69715;HTU21D;56981;53.532;49.398;2023-07-13T03:46:33;17.85;73.39
69715;HTU21D;56981;53.532;49.398;2023-07-13T03:48:59;17.89;73.72
69715;HTU21D;56981;53.532;49.398;2023-07-13T03:51:25;17.85;73.09
69715;HTU21D;56981;53.532;49.398;2023-07-13T03:53:51;17.77;72.05
69715;HTU21D;56981;53.532;49.398;2023-07-13T03:56:18;17.76;72.72
69715;HTU21D;56981;53.532;49.398;2023-07-13T03:58:46;17.84;72.95
69715;HTU21D;56981;53.532;49.398;2023-07-13T04:01:18;18.02;72.51
69715;HTU21D;56981;53.532;49.398;2023-07-13T04:03:44;18.17;73.94
69715;HTU21D;56981;53.532;49.398;2023-07-13T04:06:23;18.20;71.89
69715;HTU21D;56981;53.532;49.398;2023-07-13T04:08:55;18.30;72.93
69715;HTU21D;56981;53.532;49.398;2023-07-13T04:11:26;18.34;72.67
69715;HTU21D;56981;53.532;49.398;2023-07-13T04:13:52;18.35;71.78
69715;HTU21D;56981;53.532;49.398;2023-07-13T04:16:20;18.42;73.31
69715;HTU21D;56981;53.532;49.398;2023-07-13T04:18:47;18.37;70.53
69715;HTU21D;56981;53.532;49.398;2023-07-13T04:21:14;18.42;71.43
69715;HTU21D;56981;53.532;49.398;2023-07-13T04:23:41;18.46;72.23
69715;HTU21D;56981;53.532;49.398;2023-07-13T04:26:07;18.53;72.77
69715;HTU21D;56981;53.532;49.398;2023-07-13T04:28:34;18.57;71.68
69715;HTU21D;56981;53.532;49.398;2023-07-13T04:31:00;18.64;71.28
69715;HTU21D;56981;53.532;49.398;2023-07-13T04:33:27;18.65;71.78
69715;HTU21D;56981;53.532;49.398;2023-07-13T04:35:54;18.65;71.58
69715;HTU21D;56981;53.532;49.398;2023-07-13T04:38:26;18.67;72.26
69715;HTU21D;56981;53.532;49.398;2023-07-13T04:40:55;18.77;71.35
69715;HTU21D;56981;53.532;49.398;2023-07-13T04:43:22;18.76;71.69
69715;HTU21D;56981;53.532;49.398;2023-07-13T04:45:48;18.87;71.29
69715;HTU21D;56981;53.532;49.398;2023-07-13T04:48:14;19.13;70.64
69715;HTU21D;56981;53.532;49.398;2023-07-13T04:50:40;19.44;69.87
69715;HTU21D;56981;53.532;49.398;2023-07-13T04:53:06;19.90;67.87
69715;HTU21D;56981;53.532;49.398;2023-07-13T04:55:32;19.99;67.63
69715;HTU21D;56981;53.532;49.398;2023-07-13T04:57:58;20.32;66.10
69715;HTU21D;56981;53.532;49.398;2023-07-13T05:00:25;20.54;64.60
69715;HTU21D;56981;53.532;49.398;2023-07-13T05:02:51;20.61;63.56
69715;HTU21D;56981;53.532;49.398;2023-07-13T05:05:17;20.78;64.56
69715;HTU21D;56981;53.532;49.398;2023-07-13T05:07:43;20.96;65.50
69715;HTU21D;56981;53.532;49.398;2023-07-13T05:10:10;21.53;62.42
69715;HTU21D;56981;53.532;49.398;2023-07-13T05:12:36;21.68;61.29
69715;HTU21D;56981;53.532;49.398;2023-07-13T05:15:03;21.73;59.57
69715;HTU21D;56981;53.532;49.398;2023-07-13T05:17:29;22.33;58.96
69715;HTU21D;56981;53.532;49.398;2023-07-13T05:19:55;23.09;55.06
69715;HTU21D;56981;53.532;49.398;2023-07-13T05:22:21;23.16;55.61
69715;HTU21D;56981;53.532;49.398;2023-07-13T05:24:47;23.36;56.29
69715;HTU21D;56981;53.532;49.398;2023-07-13T05:27:13;23.21;55.00
69715;HTU21D;56981;53.532;49.398;2023-07-13T05:29:39;22.91;55.91
69715;HTU21D;56981;53.532;49.398;2023-07-13T05:32:05;22.76;56.50
69715;HTU21D;56981;53.532;49.398;2023-07-13T05:34:31;22.57;57.58
69715;HTU21D;56981;53.532;49.398;2023-07-13T05:36:57;22.23;58.35
69715;HTU21D;56981;53.532;49.398;2023-07-13T05:39:23;22.06;60.63
69715;HTU21D;56981;53.532;49.398;2023-07-13T05:41:50;21.54;61.81
69715;HTU21D;56981;53.532;49.398;2023-07-13T05:44:16;21.07;63.75
69715;HTU21D;56981;53.532;49.398;2023-07-13T05:46:42;20.92;65.53
69715;HTU21D;56981;53.532;49.398;2023-07-13T05:49:08;21.04;64.18
69715;HTU21D;56981;53.532;49.398;2023-07-13T05:51:34;20.69;65.93
69715;HTU21D;56981;53.532;49.398;2023-07-13T05:54:00;20.61;66.85
69715;HTU21D;56981;53.532;49.398;2023-07-13T05:56:26;20.49;66.03
69715;HTU21D;56981;53.532;49.398;2023-07-13T05:58:52;20.21;64.98
69715;HTU21D;56981;53.532;49.398;2023-07-13T06:01:18;20.26;67.17
69715;HTU21D;56981;53.532;49.398;2023-07-13T06:03:46;20.39;65.52
69715;HTU21D;56981;53.532;49.398;2023-07-13T06:06:13;20.47;66.51
69715;HTU21D;56981;53.532;49.398;2023-07-13T06:08:39;20.42;64.72
69715;HTU21D;56981;53.532;49.398;2023-07-13T06:11:15;20.33;66.33
69715;HTU21D;56981;53.532;49.398;2023-07-13T06:13:42;20.49;65.84
69715;HTU21D;56981;53.532;49.398;2023-07-13T06:16:09;20.78;65.37
69715;HTU21D;56981;53.532;49.398;2023-07-13T06:18:36;20.92;62.71
69715;HTU21D;56981;53.532;49.398;2023-07-13T06:21:12;21.17;60.78
69715;HTU21D;56981;53.532;49.398;2023-07-13T06:23:38;21.61;59.29
69715;HTU21D;56981;53.532;49.398;2023-07-13T06:26:05;21.52;60.16
69715;HTU21D;56981;53.532;49.398;2023-07-13T06:28:31;21.48;61.03
69715;HTU21D;56981;53.532;49.398;2023-07-13T06:30:58;21.49;60.01
69715;HTU21D;56981;53.532;49.398;2023-07-13T06:33:25;21.47;59.69
69715;HTU21D;56981;53.532;49.398;2023-07-13T06:35:51;21.54;59.03
69715;HTU21D;56981;53.532;49.398;2023-07-13T06:38:17;21.85;58.77
69715;HTU21D;56981;53.532;49.398;2023-07-13T06:40:43;21.97;58.29
69715;HTU21D;56981;53.532;49.398;2023-07-13T06:43:09;22.07;58.90
69715;HTU21D;56981;53.532;49.398;2023-07-13T06:45:41;22.17;59.16
69715;HTU21D;56981;53.532;49.398;2023-07-13T06:48:07;22.32;57.81
69715;HTU21D;56981;53.532;49.398;2023-07-13T06:50:33;22.36;57.09
69715;HTU21D;56981;53.532;49.398;2023-07-13T06:52:59;22.35;57.55
69715;HTU21D;56981;53.532;49.398;2023-07-13T06:55:26;22.56;58.67
69715;HTU21D;56981;53.532;49.398;2023-07-13T06:57:52;22.88;56.64
69715;HTU21D;56981;53.532;49.398;2023-07-13T07:00:18;23.46;55.45
69715;HTU21D;56981;53.532;49.398;2023-07-13T07:02:44;23.72;54.36
69715;HTU21D;56981;53.532;49.398;2023-07-13T07:05:10;23.83;52.32
69715;HTU21D;56981;53.532;49.398;2023-07-13T07:07:36;23.81;52.38
69715;HTU21D;56981;53.532;49.398;2023-07-13T07:10:02;24.11;51.47
69715;HTU21D;56981;53.532;49.398;2023-07-13T07:12:29;23.91;50.92
69715;HTU21D;56981;53.532;49.398;2023-07-13T07:14:55;24.09;49.73
69715;HTU21D;56981;53.532;49.398;2023-07-13T07:17:21;24.10;48.75
69715;HTU21D;56981;53.532;49.398;2023-07-13T07:19:47;24.21;49.13
69715;HTU21D;56981;53.532;49.398;2023-07-13T07:22:13;24.63;47.76
69715;HTU21D;56981;53.532;49.398;2023-07-13T07:24:39;25.09;46.16
69715;HTU21D;56981;53.532;49.398;2023-07-13T07:27:06;25.49;45.06
69715;HTU21D;56981;53.532;49.398;2023-07-13T07:29:32;25.66;45.67
69715;HTU21D;56981;53.532;49.398;2023-07-13T07:31:59;25.92;45.88
69715;HTU21D;56981;53.532;49.398;2023-07-13T07:34:27;26.10;44.62
69715;HTU21D;56981;53.532;49.398;2023-07-13T07:36:53;25.81;45.42
69715;HTU21D;56981;53.532;49.398;2023-07-13T07:39:19;25.46;45.44
69715;HTU21D;56981;53.532;49.398;2023-07-13T07:41:45;25.35;45.72
69715;HTU21D;56981;53.532;49.398;2023-07-13T07:44:11;25.21;46.34
69715;HTU21D;56981;53.532;49.398;2023-07-13T07:46:38;24.83;46.61
69715;HTU21D;56981;53.532;49.398;2023-07-13T07:49:06;24.40;47.79
69715;HTU21D;56981;53.532;49.398;2023-07-13T07:51:32;24.10;47.79
69715;HTU21D;56981;53.532;49.398;2023-07-13T07:53:58;23.98;47.41
69715;HTU21D;56981;53.532;49.398;2023-07-13T07:56:24;23.68;48.71
69715;HTU21D;56981;53.532;49.398;2023-07-13T07:58:50;23.45;49.50
69715;HTU21D;56981;53.532;49.398;2023-07-13T08:01:15;23.25;49.91
69715;HTU21D;56981;53.532;49.398;2023-07-13T08:03:42;23.01;49.47
69715;HTU21D;56981;53.532;49.398;2023-07-13T08:06:08;23.23;50.78
69715;HTU21D;56981;53.532;49.398;2023-07-13T08:08:34;23.41;48.43
69715;HTU21D;56981;53.532;49.398;2023-07-13T08:11:03;23.30;48.18
69715;HTU21D;56981;53.532;49.398;2023-07-13T08:13:30;23.37;48.41
69715;HTU21D;56981;53.532;49.398;2023-07-13T08:15:56;23.52;47.83
69715;HTU21D;56981;53.532;49.398;2023-07-13T08:18:22;23.64;48.31
69715;HTU21D;56981;53.532;49.398;2023-07-13T08:20:48;23.75;48.24
69715;HTU21D;56981;53.532;49.398;2023-07-13T08:23:14;23.97;46.54
69715;HTU21D;56981;53.532;49.398;2023-07-13T08:25:42;24.15;46.41
69715;HTU21D;56981;53.532;49.398;2023-07-13T08:28:08;24.14;47.42
69715;HTU21D;56981;53.532;49.398;2023-07-13T08:30:34;24.04;47.12
69715;HTU21D;56981;53.532;49.398;2023-07-13T08:33:02;23.85;48.17
69715;HTU21D;56981;53.532;49.398;2023-07-13T08:35:28;23.95;47.86
69715;HTU21D;56981;53.532;49.398;2023-07-13T08:37:54;24.27;48.68
69715;HTU21D;56981;53.532;49.398;2023-07-13T08:40:24;24.80;46.22
69715;HTU21D;56981;53.532;49.398;2023-07-13T08:42:58;25.17;44.57
69715;HTU21D;56981;53.532;49.398;2023-07-13T08:45:34;25.28;45.39
69715;HTU21D;56981;53.532;49.398;2023-07-13T08:48:21;25.52;43.04
69715;HTU21D;56981;53.532;49.398;2023-07-13T08:51:00;26.10;44.22
69715;HTU21D;56981;53.532;49.398;2023-07-13T08:53:37;25.95;42.52
69715;HTU21D;56981;53.532;49.398;2023-07-13T08:56:11;26.02;43.09
69715;HTU21D;56981;53.532;49.398;2023-07-13T08:58:42;26.37;41.94
69715;HTU21D;56981;53.532;49.398;2023-07-13T09:04:11;25.24;42.26
69715;HTU21D;56981;53.532;49.398;2023-07-13T09:14:51;24.49;46.01
69715;HTU21D;56981;53.532;49.398;2023-07-13T09:17:25;24.19;44.95
69715;HTU21D;56981;53.532;49.398;2023-07-13T09:20:15;24.32;44.87
69715;HTU21D;56981;53.532;49.398;2023-07-13T09:22:43;24.68;45.33
69715;HTU21D;56981;53.532;49.398;2023-07-13T09:25:32;24.82;44.30
69715;HTU21D;56981;53.532;49.398;2023-07-13T09:28:05;24.82;44.58
69715;HTU21D;56981;53.532;49.398;2023-07-13T09:30:42;24.94;44.16
69715;HTU21D;56981;53.532;49.398;2023-07-13T09:33:09;24.60;43.94
69715;HTU21D;56981;53.532;49.398;2023-07-13T09:35:35;24.75;45.42
69715;HTU21D;56981;53.532;49.398;2023-07-13T09:38:22;24.88;43.87
69715;HTU21D;56981;53.532;49.398;2023-07-13T09:41:21;25.04;42.01
69715;HTU21D;56981;53.532;49.398;2023-07-13T09:44:08;24.89;41.43
69715;HTU21D;56981;53.532;49.398;2023-07-13T09:46:39;24.60;41.36
69715;HTU21D;56981;53.532;49.398;2023-07-13T09:49:09;24.98;41.52
69715;HTU21D;56981;53.532;49.398;2023-07-13T09:51:37;24.97;40.39
69715;HTU21D;56981;53.532;49.398;2023-07-13T09:54:04;24.66;40.35
69715;HTU21D;56981;53.532;49.398;2023-07-13T09:56:31;24.49;41.13
69715;HTU21D;56981;53.532;49.398;2023-07-13T09:58:57;24.47;40.60
69715;HTU21D;56981;53.532;49.398;2023-07-13T10:01:36;24.53;39.78
69715;HTU21D;56981;53.532;49.398;2023-07-13T10:04:11;24.34;40.67
69715;HTU21D;56981;53.532;49.398;2023-07-13T10:06:39;24.36;40.60
69715;HTU21D;56981;53.532;49.398;2023-07-13T10:09:09;24.61;40.91
69715;HTU21D;56981;53.532;49.398;2023-07-13T10:11:36;24.83;40.95
69715;HTU21D;56981;53.532;49.398;2023-07-13T10:14:14;25.16;39.27
69715;HTU21D;56981;53.532;49.398;2023-07-13T10:16:43;25.08;40.52
69715;HTU21D;56981;53.532;49.398;2023-07-13T10:19:25;25.00;44.59
69715;HTU21D;56981;53.532;49.398;2023-07-13T10:22:27;24.83;42.80
69715;HTU21D;56981;53.532;49.398;2023-07-13T10:24:59;24.48;41.40
69715;HTU21D;56981;53.532;49.398;2023-07-13T10:27:33;24.08;45.60
69715;HTU21D;56981;53.532;49.398;2023-07-13T10:32:40;22.44;47.57
69715;HTU21D;56981;53.532;49.398;2023-07-13T10:35:11;21.61;52.35
69715;HTU21D;56981;53.532;49.398;2023-07-13T10:38:01;21.28;56.19
69715;HTU21D;56981;53.532;49.398;2023-07-13T10:40:36;20.66;60.73
69715;HTU21D;56981;53.532;49.398;2023-07-13T10:43:09;20.28;63.09
69715;HTU21D;56981;53.532;49.398;2023-07-13T10:45:37;19.95;64.10
69715;HTU21D;56981;53.532;49.398;2023-07-13T10:48:04;19.46;67.84
69715;HTU21D;56981;53.532;49.398;2023-07-13T10:50:31;19.10;67.41
69715;HTU21D;56981;53.532;49.398;2023-07-13T10:53:21;18.83;70.10
69715;HTU21D;56981;53.532;49.398;2023-07-13T10:58:34;18.43;74.71
69715;HTU21D;56981;53.532;49.398;2023-07-13T11:08:57;18.09;76.34
69715;HTU21D;56981;53.532;49.398;2023-07-13T11:21:19;17.88;76.59
69715;HTU21D;56981;53.532;49.398;2023-07-13T11:24:01;17.89;76.38
69715;HTU21D;56981;53.532;49.398;2023-07-13T11:26:50;18.12;78.37
69715;HTU21D;56981;53.532;49.398;2023-07-13T11:32:00;18.46;77.34
69715;HTU21D;56981;53.532;49.398;2023-07-13T11:34:29;18.89;75.73
69715;HTU21D;56981;53.532;49.398;2023-07-13T11:36:57;18.94;72.60
69715;HTU21D;56981;53.532;49.398;2023-07-13T11:39:29;19.16;72.80
69715;HTU21D;56981;53.532;49.398;2023-07-13T11:42:05;19.25;72.78
69715;HTU21D;56981;53.532;49.398;2023-07-13T11:44:33;19.54;70.97
69715;HTU21D;56981;53.532;49.398;2023-07-13T11:47:08;19.91;71.22
69715;HTU21D;56981;53.532;49.398;2023-07-13T11:49:43;20.02;71.15
69715;HTU21D;56981;53.532;49.398;2023-07-13T11:52:16;20.25;66.65
69715;HTU21D;56981;53.532;49.398;2023-07-13T11:54:51;20.41;63.12
69715;HTU21D;56981;53.532;49.398;2023-07-13T11:57:28;20.37;62.24
69715;HTU21D;56981;53.532;49.398;2023-07-13T11:59:55;20.46;62.86
69715;HTU21D;56981;53.532;49.398;2023-07-13T12:02:33;20.54;61.58
69715;HTU21D;56981;53.532;49.398;2023-07-13T12:05:01;20.57;62.95
69715;HTU21D;56981;53.532;49.398;2023-07-13T12:07:30;20.51;61.96
69715;HTU21D;56981;53.532;49.398;2023-07-13T12:10:20;20.61;63.44
69715;HTU21D;56981;53.532;49.398;2023-07-13T12:12:58;21.03;59.14
69715;HTU21D;56981;53.532;49.398;2023-07-13T12:15:45;21.18;62.24
69715;HTU21D;56981;53.532;49.398;2023-07-13T12:18:19;20.91;59.00
69715;HTU21D;56981;53.532;49.398;2023-07-13T12:20:46;20.91;63.33
69715;HTU21D;56981;53.532;49.398;2023-07-13T12:23:31;21.11;58.75
69715;HTU21D;56981;53.532;49.398;2023-07-13T12:25:58;21.20;61.76
69715;HTU21D;56981;53.532;49.398;2023-07-13T12:28:36;21.57;59.61
69715;HTU21D;56981;53.532;49.398;2023-07-13T12:31:06;21.54;59.01
69715;HTU21D;56981;53.532;49.398;2023-07-13T12:33:34;21.55;60.60
69715;HTU21D;56981;53.532;49.398;2023-07-13T12:36:05;21.58;59.78
69715;HTU21D;56981;53.532;49.398;2023-07-13T12:38:32;21.75;62.85
69715;HTU21D;56981;53.532;49.398;2023-07-13T12:40:59;21.88;63.60
69715;HTU21D;56981;53.532;49.398;2023-07-13T12:43:29;21.89;58.00
69715;HTU21D;56981;53.532;49.398;2023-07-13T12:46:18;21.81;57.90
69715;HTU21D;56981;53.532;49.398;2023-07-13T12:48:49;21.97;58.09
69715;HTU21D;56981;53.532;49.398;2023-07-13T12:51:15;22.21;56.73
69715;HTU21D;56981;53.532;49.398;2023-07-13T12:53:47;22.20;60.63
69715;HTU21D;56981;53.532;49.398;2023-07-13T12:56:22;22.12;54.86
69715;HTU21D;56981;53.532;49.398;2023-07-13T12:58:49;22.29;54.01
69715;HTU21D;56981;53.532;49.398;2023-07-13T13:01:21;22.38;54.10
69715;HTU21D;56981;53.532;49.398;2023-07-13T13:03:53;22.38;56.00
69715;HTU21D;56981;53.532;49.398;2023-07-13T13:06:29;22.23;51.39
69715;HTU21D;56981;53.532;49.398;2023-07-13T13:08:57;22.47;50.50
69715;HTU21D;56981;53.532;49.398;2023-07-13T13:11:24;22.67;52.98
69715;HTU21D;56981;53.532;49.398;2023-07-13T13:13:52;22.63;47.92
69715;HTU21D;56981;53.532;49.398;2023-07-13T13:16:26;22.50;50.39
69715;HTU21D;56981;53.532;49.398;2023-07-13T13:19:11;22.62;47.96
69715;HTU21D;56981;53.532;49.398;2023-07-13T13:21:38;22.84;48.62
69715;HTU21D;56981;53.532;49.398;2023-07-13T13:24:15;22.96;48.40
69715;HTU21D;56981;53.532;49.398;2023-07-13T13:26:42;23.05;43.55
69715;HTU21D;56981;53.532;49.398;2023-07-13T13:29:36;22.94;49.62
69715;HTU21D;56981;53.532;49.398;2023-07-13T13:32:04;23.05;48.62
69715;HTU21D;56981;53.532;49.398;2023-07-13T13:34:31;22.99;47.41
69715;HTU21D;56981;53.532;49.398;2023-07-13T13:36:56;23.02;48.56
69715;HTU21D;56981;53.532;49.398;2023-07-13T13:39:40;22.67;48.89
69715;HTU21D;56981;53.532;49.398;2023-07-13T13:42:09;22.73;50.91
69715;HTU21D;56981;53.532;49.398;2023-07-13T13:44:36;22.66;52.02
69715;HTU21D;56981;53.532;49.398;2023-07-13T13:47:03;22.47;52.53
69715;HTU21D;56981;53.532;49.398;2023-07-13T13:49:30;22.33;50.70
69715;HTU21D;56981;53.532;49.398;2023-07-13T13:51:56;22.21;48.86
69715;HTU21D;56981;53.532;49.398;2023-07-13T13:54:23;22.35;53.86
69715;HTU21D;56981;53.532;49.398;2023-07-13T13:56:51;22.40;50.98
69715;HTU21D;56981;53.532;49.398;2023-07-13T13:59:18;22.56;48.81
69715;HTU21D;56981;53.532;49.398;2023-07-13T14:01:47;22.66;46.85
69715;HTU21D;56981;53.532;49.398;2023-07-13T14:04:21;22.77;46.29
69715;HTU21D;56981;53.532;49.398;2023-07-13T14:06:48;22.68;46.96
69715;HTU21D;56981;53.532;49.398;2023-07-13T14:09:17;22.57;49.69
69715;HTU21D;56981;53.532;49.398;2023-07-13T14:11:47;22.52;48.97
69715;HTU21D;56981;53.532;49.398;2023-07-13T14:14:20;22.56;49.24
69715;HTU21D;56981;53.532;49.398;2023-07-13T14:16:47;22.53;51.35
69715;HTU21D;56981;53.532;49.398;2023-07-13T14:19:19;22.38;52.29
69715;HTU21D;56981;53.532;49.398;2023-07-13T14:21:45;22.12;51.33
69715;HTU21D;56981;53.532;49.398;2023-07-13T14:24:13;22.03;53.31
69715;HTU21D;56981;53.532;49.398;2023-07-13T14:26:41;21.94;55.86
69715;HTU21D;56981;53.532;49.398;2023-07-13T14:29:16;21.82;52.80
69715;HTU21D;56981;53.532;49.398;2023-07-13T14:31:46;21.85;52.99
69715;HTU21D;56981;53.532;49.398;2023-07-13T14:34:12;21.83;55.42
69715;HTU21D;56981;53.532;49.398;2023-07-13T14:36:42;21.74;54.17
69715;HTU21D;56981;53.532;49.398;2023-07-13T14:39:17;21.70;54.59
69715;HTU21D;56981;53.532;49.398;2023-07-13T14:41:44;21.66;54.11
69715;HTU21D;56981;53.532;49.398;2023-07-13T14:44:12;21.60;56.64
69715;HTU21D;56981;53.532;49.398;2023-07-13T14:46:45;21.48;56.91
69715;HTU21D;56981;53.532;49.398;2023-07-13T14:49:35;21.34;55.26
69715;HTU21D;56981;53.532;49.398;2023-07-13T14:52:10;21.25;57.85
69715;HTU21D;56981;53.532;49.398;2023-07-13T14:54:36;21.19;58.28
69715;HTU21D;56981;53.532;49.398;2023-07-13T14:57:17;21.15;56.77
69715;HTU21D;56981;53.532;49.398;2023-07-13T14:59:44;21.09;57.63
69715;HTU21D;56981;53.532;49.398;2023-07-13T15:02:33;21.11;59.85
69715;HTU21D;56981;53.532;49.398;2023-07-13T15:05:01;21.09;56.42
69715;HTU21D;56981;53.532;49.398;2023-07-13T15:07:27;21.07;59.10
69715;HTU21D;56981;53.532;49.398;2023-07-13T15:09:53;21.04;59.83
69715;HTU21D;56981;53.532;49.398;2023-07-13T15:12:19;21.03;59.73
69715;HTU21D;56981;53.532;49.398;2023-07-13T15:14:45;20.98;58.32
69715;HTU21D;56981;53.532;49.398;2023-07-13T15:19:50;20.87;58.63
69715;HTU21D;56981;53.532;49.398;2023-07-13T15:22:16;20.85;57.93
69715;HTU21D;56981;53.532;49.398;2023-07-13T15:24:42;20.86;59.62
69715;HTU21D;56981;53.532;49.398;2023-07-13T15:27:11;20.85;57.51
69715;HTU21D;56981;53.532;49.398;2023-07-13T15:29:38;20.87;57.44
69715;HTU21D;56981;53.532;49.398;2023-07-13T15:32:14;20.83;61.88
69715;HTU21D;56981;53.532;49.398;2023-07-13T15:34:40;20.77;59.48
69715;HTU21D;56981;53.532;49.398;2023-07-13T15:37:14;20.71;60.79
69715;HTU21D;56981;53.532;49.398;2023-07-13T15:39:40;20.64;61.18
69715;HTU21D;56981;53.532;49.398;2023-07-13T15:42:14;20.59;62.31
69715;HTU21D;56981;53.532;49.398;2023-07-13T15:44:41;20.54;60.35
69715;HTU21D;56981;53.532;49.398;2023-07-13T15:47:11;20.51;60.37
69715;HTU21D;56981;53.532;49.398;2023-07-13T15:49:38;20.40;61.31
69715;HTU21D;56981;53.532;49.398;2023-07-13T15:52:05;20.40;59.68
69715;HTU21D;56981;53.532;49.398;2023-07-13T15:54:31;20.31;59.71
69715;HTU21D;56981;53.532;49.398;2023-07-13T15:57:01;20.34;60.98